Time;durP1;ratioP1;P1;durP2;ratioP2;P2;SDS_P1;SDS_P2;PMS_P1;PMS_P2;Temp;Humidity;BMP_temperature;BMP_pressure;BME280_temperature;BME280_humidity;BME280_pressure;Samples;Min_cycle;Max_cycle;Signal;HPM_P1;HPM_P2
2022/08/16 00:01:50;;;;;;;0.10;0.10;;;;;;;-145.06;100.00;63404.56;10540492;28;20027;-76
2022/08/16 00:06:54;;;;;;;0.00;0.00;;;;;;;-145.06;100.00;63404.56;10540259;28;20363;-76
2022/08/16 00:12:53;;;;;;;0.00;0.00;;;;;;;-145.06;100.00;63404.56;10539954;28;20538;-76
2022/08/16 00:18:50;;;;;;;0.00;0.00;;;;;;;-145.06;100.00;63404.56;10539771;28;20481;-76
2022/08/16 00:23:51;;;;;;;0.10;0.10;;;;;;;-145.06;100.00;63404.56;10539555;28;20024;-76
2022/08/16 00:28:51;;;;;;;0.10;0.10;;;;;;;-145.06;100.00;63404.56;10521031;28;20023;-76
2022/08/16 00:33:52;;;;;;;0.00;0.00;;;;;;;-145.06;100.00;63404.56;10520990;28;20364;-76
2022/08/16 00:38:52;;;;;;;0.00;0.00;;;;;;;-145.06;100.00;63404.56;10520058;28;20549;-76
2022/08/16 00:43:52;;;;;;;0.07;0.07;;;;;;;-145.06;100.00;63404.56;10538515;28;20035;-76
2022/08/16 00:48:53;;;;;;;0.10;0.10;;;;;;;-145.06;100.00;63404.56;10538449;28;20020;-76
2022/08/16 00:53:54;;;;;;;0.10;0.10;;;;;;;-145.06;100.00;63404.56;10519983;28;20062;-76
2022/08/16 00:58:55;;;;;;;0.10;0.10;;;;;;;-145.06;100.00;63404.56;10537848;28;20487;-76
2022/08/16 01:03:56;;;;;;;0.00;0.00;;;;;;;-145.06;100.00;63404.56;10538413;28;20074;-76
2022/08/16 01:08:57;;;;;;;0.10;0.10;;;;;;;-145.06;100.00;63404.56;10537467;28;20168;-76
2022/08/16 01:14:30;;;;;;;0.00;0.00;;;;;;;-145.06;100.00;63404.56;10537262;28;20032;-76
2022/08/16 01:19:36;;;;;;;0.10;0.10;;;;;;;-145.06;100.00;63404.56;10518887;28;20115;-76
2022/08/16 01:24:43;;;;;;;0.10;0.10;;;;;;;-145.06;100.00;63404.56;10536977;28;20039;-76
2022/08/16 01:30:11;;;;;;;0.00;0.00;;;;;;;-145.06;100.00;63404.56;10518729;28;20019;-76
2022/08/16 01:35:29;;;;;;;0.10;0.10;;;;;;;-145.06;100.00;63404.56;10536429;28;20071;-76
2022/08/16 01:40:30;;;;;;;0.10;0.10;;;;;;;-145.06;100.00;63404.56;10518142;28;20020;-76
2022/08/16 01:45:30;;;;;;;0.10;0.10;;;;;;;-145.06;100.00;63404.56;10536266;28;20023;-76
2022/08/16 01:50:32;;;;;;;0.10;0.10;;;;;;;-145.06;100.00;63404.56;10516937;28;20027;-76
2022/08/16 01:55:32;;;;;;;0.10;0.10;;;;;;;-145.06;100.00;63404.56;10535833;28;20377;-76
2022/08/16 02:00:32;;;;;;;0.10;0.10;;;;;;;-145.06;100.00;63404.56;10535906;28;20116;-75
2022/08/16 02:05:33;;;;;;;0.00;0.00;;;;;;;-145.06;100.00;63404.56;10517295;28;20020;-75
2022/08/16 02:10:35;;;;;;;0.10;0.10;;;;;;;-145.06;100.00;63404.56;10535954;28;20544;-75
2022/08/16 02:15:39;;;;;;;0.10;0.10;;;;;;;-145.06;100.00;63404.56;10517123;28;20274;-75
2022/08/16 02:20:46;;;;;;;0.10;0.10;;;;;;;-145.06;100.00;63404.56;10534927;28;20028;-75
2022/08/16 02:25:48;;;;;;;0.00;0.00;;;;;;;-145.06;100.00;63404.56;10534947;28;20428;-75
2022/08/16 02:30:48;;;;;;;0.10;0.10;;;;;;;-145.06;100.00;63404.56;10516703;28;20031;-75
2022/08/16 02:35:49;;;;;;;0.10;0.10;;;;;;;-145.06;100.00;63404.56;10534679;28;20410;-75
2022/08/16 02:40:50;;;;;;;0.10;0.10;;;;;;;-145.06;100.00;63404.56;10534607;28;20036;-75
2022/08/16 02:45:50;;;;;;;0.10;0.10;;;;;;;-145.06;100.00;63404.56;10534619;28;20074;-75
2022/08/16 02:50:51;;;;;;;0.10;0.10;;;;;;;-145.06;100.00;63404.56;10534432;28;20160;-75
2022/08/16 02:55:52;;;;;;;0.10;0.10;;;;;;;-145.06;100.00;63404.56;10534197;28;20589;-75
2022/08/16 03:00:54;;;;;;;0.10;0.10;;;;;;;-145.06;100.00;63404.56;10534605;28;20055;-75
2022/08/16 03:05:54;;;;;;;0.05;0.05;;;;;;;-145.06;100.00;63404.56;10543400;28;20077;-75
2022/08/16 03:10:54;;;;;;;0.10;0.10;;;;;;;-145.06;100.00;63404.56;10524190;28;20124;-76
2022/08/16 03:15:55;;;;;;;0.10;0.10;;;;;;;-145.06;100.00;63404.56;10542296;28;20020;-75
2022/08/16 03:20:58;;;;;;;0.00;0.00;;;;;;;-145.06;100.00;63404.56;10542343;28;20617;-75
2022/08/16 03:25:58;;;;;;;0.10;0.10;;;;;;;-145.06;100.00;63404.56;10542018;28;20269;-75
2022/08/16 03:30:59;;;;;;;0.10;0.10;;;;;;;-145.06;100.00;63404.56;10541784;28;20054;-75
2022/08/16 03:36:00;;;;;;;0.10;0.10;;;;;;;-145.06;100.00;63404.56;10504432;28;20530;-75
2022/08/16 03:41:02;;;;;;;0.10;0.10;;;;;;;-145.06;100.00;63404.56;10499355;28;20112;-75
2022/08/16 03:46:03;;;;;;;0.10;0.10;;;;;;;-145.06;100.00;63404.56;10499373;28;20024;-77
2022/08/16 03:51:07;;;;;;;0.03;0.03;;;;;;;-145.06;100.00;63404.56;10533821;28;20033;-75
2022/08/16 03:56:09;;;;;;;0.00;0.00;;;;;;;-145.06;100.00;63404.56;10541183;28;20077;-76
2022/08/16 04:01:09;;;;;;;0.00;0.00;;;;;;;-145.06;100.00;63404.56;10541424;28;20045;-76
2022/08/16 04:06:09;;;;;;;0.10;0.10;;;;;;;-145.06;100.00;63404.56;10541802;28;20024;-76
2022/08/16 04:11:10;;;;;;;0.10;0.10;;;;;;;-145.06;100.00;63404.56;10523344;28;20078;-76
2022/08/16 04:16:11;;;;;;;0.10;0.10;;;;;;;-145.06;100.00;63404.56;10539823;28;20020;-75
2022/08/16 04:21:11;;;;;;;0.10;0.10;;;;;;;-145.06;100.00;63404.56;10535525;28;20024;-74
2022/08/16 04:26:11;;;;;;;0.10;0.10;;;;;;;-145.06;100.00;63404.56;10530889;28;20043;-75
2022/08/16 04:31:12;;;;;;;0.00;0.00;;;;;;;-145.06;100.00;63404.56;10528487;28;20025;-75
2022/08/16 04:36:12;;;;;;;0.00;0.00;;;;;;;-145.06;100.00;63404.56;10498156;28;20025;-75
2022/08/16 04:41:13;;;;;;;0.10;0.10;;;;;;;-145.06;100.00;63404.56;10479207;28;20049;-75
2022/08/16 04:46:15;;;;;;;0.10;0.10;;;;;;;-145.06;100.00;63404.56;10513553;28;20333;-75
2022/08/16 04:51:15;;;;;;;0.10;0.10;;;;;;;-145.06;100.00;63404.56;10496577;28;20028;-75
2022/08/16 04:56:18;;;;;;;0.10;0.10;;;;;;;-145.06;100.00;63404.56;10494479;28;20016;-75
2022/08/16 05:01:18;;;;;;;0.00;0.00;;;;;;;-145.06;100.00;63404.56;10497831;28;20024;-75
2022/08/16 05:06:19;;;;;;;0.00;0.00;;;;;;;-145.06;100.00;63404.56;10526979;28;20099;-75
2022/08/16 05:11:21;;;;;;;0.10;0.10;;;;;;;-145.06;100.00;63404.56;10532636;28;20016;-75
2022/08/16 05:16:28;;;;;;;0.10;0.10;;;;;;;-145.06;100.00;63404.56;10488378;28;20016;-75
2022/08/16 05:21:30;;;;;;;0.10;0.10;;;;;;;-145.06;100.00;63404.56;10510240;28;20032;-75
2022/08/16 05:26:32;;;;;;;0.10;0.10;;;;;;;-145.06;100.00;63404.56;10513287;28;20372;-75
2022/08/16 05:31:33;;;;;;;0.00;0.00;;;;;;;-145.06;100.00;63404.56;10512027;28;20031;-75
2022/08/16 05:36:33;;;;;;;0.10;0.10;;;;;;;-145.06;100.00;63404.56;10492903;22;20423;-75
2022/08/16 05:41:35;;;;;;;0.00;0.00;;;;;;;-145.06;100.00;63404.56;10411618;28;20024;-75
2022/08/16 05:46:35;;;;;;;0.10;0.10;;;;;;;-145.06;100.00;63404.56;10423846;28;20067;-76
2022/08/16 05:51:36;;;;;;;0.00;0.00;;;;;;;-145.06;100.00;63404.56;10452638;28;20071;-75
2022/08/16 05:56:37;;;;;;;0.00;0.00;;;;;;;-145.06;100.00;63404.56;10426665;28;20009;-75
2022/08/16 06:01:39;;;;;;;0.00;0.00;;;;;;;-145.06;100.00;63404.56;10434859;28;20263;-75
2022/08/16 06:06:41;;;;;;;0.00;0.00;;;;;;;-145.06;100.00;63404.56;10449890;28;20024;-75
2022/08/16 06:11:43;;;;;;;0.10;0.10;;;;;;;-145.06;100.00;63404.56;10444762;28;20052;-76
2022/08/16 06:16:44;;;;;;;0.00;0.00;;;;;;;-145.06;100.00;63404.56;10427767;28;20057;-75
2022/08/16 06:21:45;;;;;;;0.00;0.00;;;;;;;-145.06;100.00;63404.56;10408320;28;20064;-75
2022/08/16 06:26:45;;;;;;;0.05;0.05;;;;;;;-145.06;100.00;63404.56;10407882;28;20013;-75
2022/08/16 06:31:46;;;;;;;0.00;0.00;;;;;;;-145.06;100.00;63404.56;10408616;28;20098;-75
2022/08/16 06:36:47;;;;;;;0.10;0.10;;;;;;;-145.06;100.00;63404.56;10407203;28;20021;-76
2022/08/16 06:41:47;;;;;;;0.10;0.10;;;;;;;-145.06;100.00;63404.56;10408420;28;20119;-74
2022/08/16 06:46:48;;;;;;;0.00;0.00;;;;;;;-145.06;100.00;63404.56;10424198;28;20024;-74
2022/08/16 06:51:48;;;;;;;0.00;0.00;;;;;;;-145.06;100.00;63404.56;10411008;28;20073;-74
2022/08/16 06:56:49;;;;;;;0.00;0.00;;;;;;;-145.06;100.00;63404.56;10407242;28;20276;-74
2022/08/16 07:01:50;;;;;;;0.10;0.10;;;;;;;-145.06;100.00;63404.56;10407672;28;20048;-72
2022/08/16 07:06:51;;;;;;;0.00;0.00;;;;;;;-145.06;100.00;63404.56;10407862;28;20029;-74
2022/08/16 07:11:51;;;;;;;0.10;0.10;;;;;;;-145.06;100.00;63404.56;10407456;28;20499;-75
2022/08/16 07:16:52;;;;;;;0.10;0.10;;;;;;;-145.06;100.00;63404.56;10413418;28;20387;-74
2022/08/16 07:21:52;;;;;;;0.00;0.00;;;;;;;-145.06;100.00;63404.56;10408941;28;20498;-72
2022/08/16 07:26:52;;;;;;;0.10;0.10;;;;;;;-145.06;100.00;63404.56;10443035;28;20013;-72
2022/08/16 07:31:53;;;;;;;0.10;0.10;;;;;;;-145.06;100.00;63404.56;10413099;28;20052;-72
2022/08/16 07:36:53;;;;;;;0.10;0.10;;;;;;;-145.06;100.00;63404.56;10438925;28;20028;-73
2022/08/16 07:41:53;;;;;;;0.10;0.10;;;;;;;-145.06;100.00;63404.56;10429038;28;20053;-73
2022/08/16 07:46:55;;;;;;;0.00;0.00;;;;;;;-145.06;100.00;63404.56;10428949;28;20017;-73
2022/08/16 07:51:55;;;;;;;0.00;0.00;;;;;;;-145.06;100.00;63404.56;10448783;28;20022;-73
2022/08/16 07:56:55;;;;;;;0.10;0.10;;;;;;;-145.06;100.00;63404.56;10407103;28;20424;-73
2022/08/16 08:01:56;;;;;;;0.10;0.10;;;;;;;-145.06;100.00;63404.56;10427786;28;20047;-73
2022/08/16 08:06:58;;;;;;;0.10;0.10;;;;;;;-145.06;100.00;63404.56;10438118;28;20388;-73
2022/08/16 08:11:58;;;;;;;0.10;0.10;;;;;;;-145.06;100.00;63404.56;10454643;28;20049;-73
2022/08/16 08:17:00;;;;;;;0.10;0.10;;;;;;;-145.06;100.00;63404.56;10431115;28;20491;-73
2022/08/16 08:22:00;;;;;;;;;;;;;;;-145.06;100.00;63404.56;10416659;28;20025;-73
2022/08/16 08:27:01;;;;;;;0.10;0.10;;;;;;;-145.06;100.00;63404.56;10423092;28;20379;-72
2022/08/16 08:32:02;;;;;;;0.10;0.10;;;;;;;-145.06;100.00;63404.56;10429899;28;20033;-73
2022/08/16 08:37:03;;;;;;;;;;;;;;;-145.06;100.00;63404.56;10419736;28;20037;-73
2022/08/16 08:42:04;;;;;;;0.10;0.10;;;;;;;-145.06;100.00;63404.56;10424685;28;20008;-73
2022/08/16 08:47:05;;;;;;;0.10;0.10;;;;;;;-145.06;100.00;63404.56;10411672;28;20027;-73
2022/08/16 08:52:06;;;;;;;0.10;0.10;;;;;;;-145.06;100.00;63404.56;10412093;28;20044;-73
2022/08/16 08:57:06;;;;;;;0.10;0.10;;;;;;;-145.06;100.00;63404.56;10411887;28;20048;-73
2022/08/16 09:02:08;;;;;;;0.00;0.00;;;;;;;-145.06;100.00;63404.56;10412173;28;20108;-77
2022/08/16 09:07:09;;;;;;;0.10;0.10;;;;;;;-145.06;100.00;63404.56;10416899;28;20028;-75
2022/08/16 09:12:10;;;;;;;0.10;0.10;;;;;;;-145.06;100.00;63404.56;10413123;28;20473;-75
2022/08/16 09:17:11;;;;;;;0.10;0.10;;;;;;;-145.06;100.00;63404.56;10394626;28;20021;-75
2022/08/16 09:22:12;;;;;;;0.05;0.05;;;;;;;-145.06;100.00;63404.56;10412193;28;20272;-75
2022/08/16 09:27:12;;;;;;;0.10;0.10;;;;;;;-145.06;100.00;63404.56;10412503;28;20479;-75
2022/08/16 09:32:13;;;;;;;0.03;0.03;;;;;;;-145.06;100.00;63404.56;10431072;28;20075;-75
2022/08/16 09:37:14;;;;;;;0.00;0.00;;;;;;;-145.06;100.00;63404.56;10419509;28;20026;-74
2022/08/16 09:42:15;;;;;;;;;;;;;;;-145.06;100.00;63404.56;10425427;28;20061;-75
2022/08/16 09:47:15;;;;;;;0.10;0.10;;;;;;;-145.06;100.00;63404.56;10420286;28;20332;-76
2022/08/16 09:52:15;;;;;;;0.10;0.10;;;;;;;-145.06;100.00;63404.56;10443755;28;20035;-76
2022/08/16 09:57:16;;;;;;;0.10;0.10;;;;;;;-145.06;100.00;63404.56;10451873;28;20029;-75
2022/08/16 10:02:16;;;;;;;0.07;0.07;;;;;;;-145.06;100.00;63404.56;10446367;28;20041;-74
2022/08/16 10:07:17;;;;;;;0.10;0.10;;;;;;;-145.06;100.00;63404.56;10448089;28;20024;-74
2022/08/16 10:17:41;;;;;;;0.03;0.03;;;;;;;-145.06;100.00;63404.56;10413831;28;20484;-74
2022/08/16 10:22:41;;;;;;;0.10;0.10;;;;;;;-145.06;100.00;63404.56;10417804;28;20093;-74
2022/08/16 10:27:44;;;;;;;0.10;0.10;;;;;;;-145.06;100.00;63404.56;10408249;28;20101;-75
2022/08/16 10:32:44;;;;;;;0.10;0.10;;;;;;;-145.06;100.00;63404.56;10408700;28;20021;-74
2022/08/16 10:37:45;;;;;;;0.10;0.10;;;;;;;-145.06;100.00;63404.56;10407845;28;20032;-75
2022/08/16 10:42:45;;;;;;;0.10;0.10;;;;;;;-145.06;100.00;63404.56;10408503;28;20462;-76
2022/08/16 10:47:46;;;;;;;0.10;0.10;;;;;;;-145.06;100.00;63404.56;10419675;28;20151;-75
2022/08/16 10:52:46;;;;;;;0.10;0.10;;;;;;;-145.06;100.00;63404.56;10449295;28;20112;-76
2022/08/16 10:57:47;;;;;;;0.10;0.10;;;;;;;-145.06;100.00;63404.56;10446545;28;20021;-76
2022/08/16 11:02:49;;;;;;;0.10;0.10;;;;;;;-145.06;100.00;63404.56;10448960;28;20041;-74
2022/08/16 11:07:50;;;;;;;0.10;0.10;;;;;;;-145.06;100.00;63404.56;10448494;28;20025;-75
2022/08/16 11:12:50;;;;;;;0.10;0.10;;;;;;;-145.06;100.00;63404.56;10448714;28;20016;-75
2022/08/16 11:17:53;;;;;;;0.10;0.10;;;;;;;-145.06;100.00;63404.56;10416715;28;20029;-75
2022/08/16 11:22:54;;;;;;;0.10;0.10;;;;;;;-145.06;100.00;63404.56;10409540;28;20029;-75
2022/08/16 11:27:56;;;;;;;0.10;0.10;;;;;;;-145.06;100.00;63404.56;10414839;28;20021;-75
2022/08/16 11:32:56;;;;;;;0.10;0.10;;;;;;;-145.06;100.00;63404.56;10418159;28;20021;-75
2022/08/16 11:38:06;;;;;;;0.10;0.10;;;;;;;-145.06;100.00;63404.56;10414590;28;20104;-75
2022/08/16 11:43:07;;;;;;;0.10;0.10;;;;;;;-145.06;100.00;63404.56;10427160;28;20029;-76
2022/08/16 11:48:07;;;;;;;0.10;0.10;;;;;;;-145.06;100.00;63404.56;10443546;28;20387;-75
2022/08/16 11:53:08;;;;;;;0.10;0.10;;;;;;;-145.06;100.00;63404.56;10455151;28;20284;-76
2022/08/16 11:58:10;;;;;;;0.10;0.10;;;;;;;-145.06;100.00;63404.56;10454648;28;20100;-76
2022/08/16 12:03:10;;;;;;;0.00;0.00;;;;;;;-145.06;100.00;63404.56;10453100;28;20071;-75
2022/08/16 12:08:11;;;;;;;0.00;0.00;;;;;;;-145.06;100.00;63404.56;10454074;28;20365;-75
2022/08/16 12:13:13;;;;;;;0.10;0.10;;;;;;;-145.06;100.00;63404.56;10454242;28;20060;-75
2022/08/16 12:18:13;;;;;;;0.10;0.10;;;;;;;-145.06;100.00;63404.56;10429129;28;20391;-75
2022/08/16 12:23:14;;;;;;;0.00;0.00;;;;;;;-145.06;100.00;63404.56;10454205;28;20029;-75
2022/08/16 12:28:15;;;;;;;0.10;0.10;;;;;;;-145.06;100.00;63404.56;10453514;28;20033;-76
2022/08/16 12:33:16;;;;;;;0.10;0.10;;;;;;;-145.06;100.00;63404.56;10453480;28;20407;-75
2022/08/16 12:38:17;;;;;;;0.10;0.10;;;;;;;-145.06;100.00;63404.56;10429071;28;20033;-75
2022/08/16 12:43:21;;;;;;;0.10;0.10;;;;;;;-145.06;100.00;63404.56;10452653;28;20739;-74
2022/08/16 12:53:44;;;;;;;0.10;0.10;;;;;;;-145.06;100.00;63404.56;10452449;28;20028;-74
2022/08/16 12:58:49;;;;;;;0.07;0.07;;;;;;;-145.06;100.00;63404.56;10451472;28;20464;-75
2022/08/16 13:03:54;;;;;;;0.10;0.10;;;;;;;-145.06;100.00;63404.56;10450157;28;20087;-74
2022/08/16 13:08:58;;;;;;;0.10;0.10;;;;;;;-145.06;100.00;63404.56;10452401;28;20060;-75
2022/08/16 13:13:59;;;;;;;0.10;0.10;;;;;;;-145.06;100.00;63404.56;10445453;28;20028;-75
2022/08/16 13:18:59;;;;;;;0.10;0.10;;;;;;;-145.06;100.00;63404.56;10412232;28;20014;-75
2022/08/16 13:24:00;;;;;;;0.10;0.10;;;;;;;-145.06;100.00;63404.56;10410515;28;20026;-76
2022/08/16 13:29:00;;;;;;;0.10;0.10;;;;;;;-145.06;100.00;63404.56;10411076;28;20097;-76
2022/08/16 13:34:00;;;;;;;0.10;0.10;;;;;;;-145.06;100.00;63404.56;10409941;28;20025;-76
2022/08/16 13:39:02;;;;;;;0.00;0.00;;;;;;;-145.06;100.00;63404.56;10409789;28;20112;-76
2022/08/16 13:44:03;;;;;;;0.10;0.10;;;;;;;-145.06;100.00;63404.56;10409576;28;20032;-76
2022/08/16 13:49:04;;;;;;;0.10;0.10;;;;;;;-145.06;100.00;63404.56;10391771;28;20026;-75
2022/08/16 13:54:04;;;;;;;0.00;0.00;;;;;;;-145.06;100.00;63404.56;10417247;28;20028;-75
2022/08/16 13:59:10;;;;;;;0.10;0.10;;;;;;;-145.06;100.00;63404.56;10450629;28;20048;-75
2022/08/16 14:04:10;;;;;;;0.10;0.10;;;;;;;-145.06;100.00;63404.56;10449751;28;20025;-76
2022/08/16 14:09:10;;;;;;;0.17;0.17;;;;;;;-145.06;100.00;63404.56;10432525;28;20107;-76
2022/08/16 14:14:11;;;;;;;0.10;0.10;;;;;;;-145.06;100.00;63404.56;10441602;28;20440;-76
2022/08/16 14:19:17;;;;;;;0.10;0.10;;;;;;;-145.06;100.00;63404.56;10391100;28;20399;-74
2022/08/16 14:24:17;;;;;;;0.10;0.10;;;;;;;-145.06;100.00;63404.56;10408480;28;20048;-76
2022/08/16 14:29:18;;;;;;;0.10;0.10;;;;;;;-145.06;100.00;63404.56;10430739;28;20029;-76
2022/08/16 14:34:18;;;;;;;0.10;0.10;;;;;;;-145.06;100.00;63404.56;10449788;28;20115;-76
2022/08/16 14:39:20;;;;;;;0.10;0.10;;;;;;;-145.06;100.00;63404.56;10448825;28;20460;-75
2022/08/16 14:44:21;;;;;;;0.00;0.00;;;;;;;-145.06;100.00;63404.56;10440184;28;20120;-73
2022/08/16 14:49:22;;;;;;;0.10;0.10;;;;;;;-145.06;100.00;63404.56;10410566;28;20099;-75
2022/08/16 14:54:22;;;;;;;0.00;0.00;;;;;;;-145.06;100.00;63404.56;10408847;28;20163;-76
2022/08/16 14:59:23;;;;;;;0.10;0.10;;;;;;;-145.06;100.00;63404.56;10414056;28;20020;-75
2022/08/16 15:04:25;;;;;;;0.05;0.05;;;;;;;-145.06;100.00;63404.56;10436304;28;20061;-76
2022/08/16 15:09:25;;;;;;;0.10;0.10;;;;;;;-145.06;100.00;63404.56;10417290;28;20472;-75
2022/08/16 15:14:25;;;;;;;0.10;0.10;;;;;;;-145.06;100.00;63404.56;10416430;28;20026;-75
2022/08/16 15:19:26;;;;;;;0.00;0.00;;;;;;;-145.06;100.00;63404.56;10422486;28;20064;-76
2022/08/16 15:24:26;;;;;;;0.10;0.10;;;;;;;-145.06;100.00;63404.56;10415462;28;20087;-76
2022/08/16 15:29:27;;;;;;;0.10;0.10;;;;;;;-145.06;100.00;63404.56;10415975;28;20041;-76
2022/08/16 15:34:27;;;;;;;0.10;0.10;;;;;;;-145.06;100.00;63404.56;10397399;28;20021;-75
2022/08/16 15:39:27;;;;;;;0.10;0.10;;;;;;;-145.06;100.00;63404.56;10416285;28;20075;-75
2022/08/16 15:44:34;;;;;;;0.10;0.10;;;;;;;-145.06;100.00;63404.56;10446647;28;20084;-75
2022/08/16 15:49:37;;;;;;;0.10;0.10;;;;;;;-145.06;100.00;63404.56;10446013;28;20375;-75
2022/08/16 15:54:39;;;;;;;0.10;0.10;;;;;;;-145.06;100.00;63404.56;10454922;28;20025;-75
2022/08/16 15:59:40;;;;;;;0.10;0.10;;;;;;;-145.06;100.00;63404.56;10455479;28;20357;-75
2022/08/16 16:04:40;;;;;;;0.10;0.10;;;;;;;-145.06;100.00;63404.56;10454678;28;20025;-75
2022/08/16 16:09:41;;;;;;;0.07;0.07;;;;;;;-145.06;100.00;63404.56;10453803;28;20017;-76
2022/08/16 16:14:41;;;;;;;0.10;0.10;;;;;;;-145.06;100.00;63404.56;10445683;28;20468;-75
2022/08/16 16:19:41;;;;;;;0.00;0.00;;;;;;;-145.06;100.00;63404.56;10452095;28;20094;-75
2022/08/16 16:24:45;;;;;;;0.10;0.10;;;;;;;-145.06;100.00;63404.56;10453880;28;20033;-75
2022/08/16 16:29:46;;;;;;;0.00;0.00;;;;;;;-145.06;100.00;63404.56;10453899;28;20021;-74
2022/08/16 16:34:47;;;;;;;0.10;0.10;;;;;;;-145.06;100.00;63404.56;10453326;28;20403;-75
2022/08/16 16:39:47;;;;;;;0.10;0.10;;;;;;;-145.06;100.00;63404.56;10435848;28;20025;-75
2022/08/16 16:44:48;;;;;;;0.10;0.10;;;;;;;-145.06;100.00;63404.56;10443537;28;20090;-76
2022/08/16 16:49:49;;;;;;;0.10;0.10;;;;;;;-145.06;100.00;63404.56;10439762;28;20387;-75
2022/08/16 16:54:49;;;;;;;0.00;0.00;;;;;;;-145.06;100.00;63404.56;10400294;28;20048;-76
2022/08/16 16:59:50;;;;;;;0.10;0.10;;;;;;;-145.06;100.00;63404.56;10408226;28;20056;-75
2022/08/16 17:04:50;;;;;;;0.10;0.10;;;;;;;-145.06;100.00;63404.56;10432144;28;20384;-75
2022/08/16 17:09:52;;;;;;;0.10;0.10;;;;;;;-145.06;100.00;63404.56;10452429;28;20058;-76
2022/08/16 17:14:53;;;;;;;0.10;0.10;;;;;;;-145.06;100.00;63404.56;10437948;28;20041;-76
2022/08/16 17:19:54;;;;;;;0.10;0.10;;;;;;;-145.06;100.00;63404.56;10399334;28;20028;-77
2022/08/16 17:24:54;;;;;;;0.10;0.10;;;;;;;-145.06;100.00;63404.56;10418953;28;20033;-75
2022/08/16 17:29:55;;;;;;;0.00;0.00;;;;;;;-145.06;100.00;63404.56;10410990;28;20457;-76
2022/08/16 17:34:55;;;;;;;0.10;0.10;;;;;;;-145.06;100.00;63404.56;10407472;28;20500;-75
2022/08/16 17:39:55;;;;;;;0.00;0.00;;;;;;;-145.06;100.00;63404.56;10410001;28;20045;-74
2022/08/16 17:44:56;;;;;;;0.00;0.00;;;;;;;-145.06;100.00;63404.56;10413780;28;20025;-76
2022/08/16 17:49:56;;;;;;;0.07;0.07;;;;;;;-145.06;100.00;63404.56;10439620;28;20028;-76
2022/08/16 17:54:57;;;;;;;0.08;0.08;;;;;;;-145.06;100.00;63404.56;10431390;28;20049;-75
2022/08/16 17:59:57;;;;;;;0.00;0.00;;;;;;;-145.06;100.00;63404.56;10429964;28;20021;-76
2022/08/16 18:04:58;;;;;;;0.10;0.10;;;;;;;-145.06;100.00;63404.56;10450004;28;20908;-76
2022/08/16 18:09:58;;;;;;;0.00;0.00;;;;;;;-145.06;100.00;63404.56;10450106;28;20028;-75
2022/08/16 18:15:00;;;;;;;0.10;0.10;;;;;;;-145.06;100.00;63404.56;10435389;28;20025;-76
2022/08/16 18:20:01;;;;;;;;;;;;;;;-145.06;100.00;63404.56;10446278;28;20472;-74
2022/08/16 18:25:04;;;;;;;0.00;0.00;;;;;;;-145.06;100.00;63404.56;10449371;28;19912;-75
2022/08/16 18:30:05;;;;;;;0.10;0.10;;;;;;;-145.06;100.00;63404.56;10449696;28;20029;-75
2022/08/16 18:35:06;;;;;;;0.00;0.00;;;;;;;-145.06;100.00;63404.56;10428805;28;20116;-75
2022/08/16 18:40:07;;;;;;;0.00;0.00;;;;;;;-145.06;100.00;63404.56;10408151;28;20026;-75
2022/08/16 18:45:13;;;;;;;0.00;0.00;;;;;;;-145.06;100.00;63404.56;10407868;28;20029;-75
2022/08/16 18:50:14;;;;;;;0.00;0.00;;;;;;;-145.06;100.00;63404.56;10440231;28;20427;-74
2022/08/16 18:55:14;;;;;;;0.03;0.03;;;;;;;-145.06;100.00;63404.56;10447730;28;20079;-75
2022/08/16 19:00:19;;;;;;;0.00;0.00;;;;;;;-145.06;100.00;63404.56;10448671;28;20047;-75
2022/08/16 19:05:23;;;;;;;0.00;0.00;;;;;;;-145.06;100.00;63404.56;10448942;28;20036;-75
2022/08/16 19:10:23;;;;;;;0.00;0.00;;;;;;;-145.06;100.00;63404.56;10445832;28;20064;-75
2022/08/16 19:15:27;;;;;;;0.00;0.00;;;;;;;-145.06;100.00;63404.56;10408026;28;20079;-75
2022/08/16 19:20:28;;;;;;;0.08;0.08;;;;;;;-145.06;100.00;63404.56;10409065;28;20292;-74
2022/08/16 19:25:36;;;;;;;0.00;0.00;;;;;;;-145.06;100.00;63404.56;10406928;28;20080;-75
2022/08/16 19:30:37;;;;;;;0.00;0.00;;;;;;;-145.06;100.00;63404.56;10407439;28;20033;-75
2022/08/16 19:35:37;;;;;;;0.00;0.00;;;;;;;-145.06;100.00;63404.56;10407387;28;20032;-75
2022/08/16 19:40:38;;;;;;;0.00;0.00;;;;;;;-145.06;100.00;63404.56;10407314;28;20504;-75
2022/08/16 19:45:39;;;;;;;0.00;0.00;;;;;;;-145.06;100.00;63404.56;10411570;28;20025;-75
2022/08/16 19:50:39;;;;;;;0.00;0.00;;;;;;;-145.06;100.00;63404.56;10417574;28;20017;-75
2022/08/16 19:55:41;;;;;;;0.00;0.00;;;;;;;-145.06;100.00;63404.56;10455641;28;20033;-74
2022/08/16 20:00:43;;;;;;;0.10;0.10;;;;;;;-145.06;100.00;63404.56;10455808;28;20021;-74
2022/08/16 20:05:43;;;;;;;0.00;0.00;;;;;;;-145.06;100.00;63404.56;10437874;28;20527;-74
2022/08/16 20:10:45;;;;;;;0.10;0.10;;;;;;;-145.06;100.00;63404.56;10456246;28;20059;-74
2022/08/16 20:15:47;;;;;;;0.00;0.00;;;;;;;-145.06;100.00;63404.56;10434410;28;20021;-74
2022/08/16 20:20:48;;;;;;;0.10;0.10;;;;;;;-145.06;100.00;63404.56;10415770;28;20072;-74
2022/08/16 20:25:50;;;;;;;0.10;0.10;;;;;;;-145.06;100.00;63404.56;10426231;28;20075;-74
2022/08/16 20:30:51;;;;;;;0.00;0.00;;;;;;;-145.06;100.00;63404.56;10413791;28;20028;-75
2022/08/16 20:35:51;;;;;;;0.10;0.10;;;;;;;-145.06;100.00;63404.56;10412943;28;20045;-74
2022/08/16 20:40:51;;;;;;;0.00;0.00;;;;;;;-145.06;100.00;63404.56;10406501;28;20322;-74
2022/08/16 20:45:52;;;;;;;0.00;0.00;;;;;;;-145.06;100.00;63404.56;10414171;28;20025;-75
2022/08/16 20:50:54;;;;;;;0.00;0.00;;;;;;;-145.06;100.00;63404.56;10443142;28;20037;-74
2022/08/16 20:55:55;;;;;;;0.00;0.00;;;;;;;-145.06;100.00;63404.56;10450492;28;20315;-74
2022/08/16 21:00:55;;;;;;;0.10;0.10;;;;;;;-145.06;100.00;63404.56;10433892;28;20500;-74
2022/08/16 21:05:57;;;;;;;0.00;0.00;;;;;;;-145.06;100.00;63404.56;10411441;28;20025;-75
2022/08/16 21:11:00;;;;;;;0.10;0.10;;;;;;;-145.06;100.00;63404.56;10394089;28;20029;-76
2022/08/16 21:16:01;;;;;;;0.10;0.10;;;;;;;-145.06;100.00;63404.56;10410561;28;20024;-75
2022/08/16 21:21:02;;;;;;;0.10;0.10;;;;;;;-145.06;100.00;63404.56;10411533;28;20519;-77
2022/08/16 21:26:03;;;;;;;0.10;0.10;;;;;;;-145.06;100.00;63404.56;10417562;28;20045;-76
2022/08/16 21:31:03;;;;;;;0.10;0.10;;;;;;;-145.06;100.00;63404.56;10410664;28;20116;-76
2022/08/16 21:36:04;;;;;;;0.10;0.10;;;;;;;-145.06;100.00;63404.56;10416003;28;20120;-75
2022/08/16 21:41:06;;;;;;;0.10;0.10;;;;;;;-145.06;100.00;63404.56;10410301;28;20025;-76
2022/08/16 21:46:08;;;;;;;0.00;0.00;;;;;;;-145.06;100.00;63404.56;10416316;28;20029;-76
2022/08/16 21:51:12;;;;;;;0.10;0.10;;;;;;;-145.06;100.00;63404.56;10412052;28;20029;-74
2022/08/16 21:56:12;;;;;;;0.00;0.00;;;;;;;-145.06;100.00;63404.56;10450478;28;20021;-76
2022/08/16 22:01:13;;;;;;;0.10;0.10;;;;;;;-145.06;100.00;63404.56;10450545;28;20037;-77
2022/08/16 22:06:13;;;;;;;0.10;0.10;;;;;;;-145.06;100.00;63404.56;10452356;28;20100;-77
2022/08/16 22:11:14;;;;;;;0.03;0.03;;;;;;;-145.06;100.00;63404.56;10443518;28;20030;-75
2022/08/16 22:16:14;;;;;;;0.10;0.10;;;;;;;-145.06;100.00;63404.56;10418114;28;20112;-76
2022/08/16 22:21:15;;;;;;;0.10;0.10;;;;;;;-145.06;100.00;63404.56;10449470;28;20064;-75
2022/08/16 22:26:15;;;;;;;0.10;0.10;;;;;;;-145.06;100.00;63404.56;10453175;28;20021;-76
2022/08/16 22:31:16;;;;;;;0.10;0.10;;;;;;;-145.06;100.00;63404.56;10452484;28;20541;-77
2022/08/16 22:36:16;;;;;;;0.10;0.10;;;;;;;-145.06;100.00;63404.56;10434052;28;20391;-77
2022/08/16 22:41:17;;;;;;;0.10;0.10;;;;;;;-145.06;100.00;63404.56;10451855;28;20060;-77
2022/08/16 22:46:18;;;;;;;0.10;0.10;;;;;;;-145.06;100.00;63404.56;10428323;28;20473;-77